createdAt,value
2023-03-29T00:01:00.936Z,100575.97
2023-03-29T00:03:31.375Z,100589.06
2023-03-29T00:06:03.301Z,100578.56
2023-03-29T00:08:34.135Z,100580.31
2023-03-29T00:11:06.560Z,100584.69
2023-03-29T00:13:36.696Z,100585.53
2023-03-29T00:16:06.613Z,100570.69
2023-03-29T00:18:36.374Z,100570.66
2023-03-29T00:21:06.259Z,100561.94
2023-03-29T00:23:36.090Z,100554.91
2023-03-29T00:26:09.464Z,100562.81
2023-03-29T00:28:39.137Z,100561.06
2023-03-29T00:31:12.018Z,100554.94
2023-03-29T00:33:42.456Z,100552.31
2023-03-29T00:36:13.596Z,100555.81
2023-03-29T00:38:43.530Z,100548.78
2023-03-29T00:41:15.866Z,100551.41
2023-03-29T00:44:04.057Z,100536.50
2023-03-29T00:46:35.221Z,100541.72
2023-03-29T00:49:08.080Z,100541.66
2023-03-29T00:51:39.853Z,100547.75
2023-03-29T00:54:15.062Z,100538.94
2023-03-29T00:56:51.210Z,100538.06
2023-03-29T00:59:23.593Z,100537.22
2023-03-29T01:01:55.186Z,100534.56
2023-03-29T01:04:31.887Z,100522.25
2023-03-29T01:07:05.739Z,100526.63
2023-03-29T01:09:39.043Z,100523.09
2023-03-29T01:12:17.260Z,100527.47
2023-03-29T01:14:50.733Z,100513.47
2023-03-29T01:17:22.002Z,100512.59
2023-03-29T01:20:10.854Z,100517.84
2023-03-29T01:22:51.519Z,100511.75
2023-03-29T01:25:26.349Z,100518.78
2023-03-29T01:28:02.625Z,100510.09
2023-03-29T01:30:34.354Z,100505.75
2023-03-29T01:33:07.654Z,100497.00
2023-03-29T01:35:41.186Z,100488.22
2023-03-29T01:38:13.516Z,100502.22
2023-03-29T01:40:43.268Z,100502.22
2023-03-29T01:43:24.708Z,100494.31
2023-03-29T01:46:00.577Z,100487.34
2023-03-29T01:48:33.058Z,100483.81
2023-03-29T01:51:08.630Z,100474.19
2023-03-29T01:53:42.217Z,100471.56
2023-03-29T01:56:14.672Z,100475.97
2023-03-29T01:58:48.496Z,100469.00
2023-03-29T02:01:21.702Z,100461.13
2023-03-29T02:03:54.775Z,100458.47
2023-03-29T02:06:27.193Z,100456.66
2023-03-29T02:08:57.497Z,100454.84
2023-03-29T02:11:29.506Z,100460.91
2023-03-29T02:14:01.922Z,100457.34
2023-03-29T02:16:31.627Z,100455.53
2023-03-29T02:19:01.724Z,100445.91
2023-03-29T02:21:35.695Z,100444.06
2023-03-29T02:24:10.086Z,100444.94
2023-03-29T02:26:40.976Z,100443.97
2023-03-29T02:29:13.414Z,100446.53
2023-03-29T02:31:46.038Z,100445.59
2023-03-29T02:34:20.974Z,100449.94
2023-03-29T02:36:53.595Z,100448.09
2023-03-29T02:39:25.478Z,100442.75
2023-03-29T02:41:56.914Z,100429.63
2023-03-29T02:44:31.938Z,100435.66
2023-03-29T02:47:04.160Z,100435.63
2023-03-29T02:49:33.860Z,100432.09
2023-03-29T02:52:07.858Z,100434.69
2023-03-29T02:54:43.143Z,100434.66
2023-03-29T02:57:13.564Z,100435.50
2023-03-29T02:59:46.075Z,100443.31
2023-03-29T03:02:17.702Z,100433.66
2023-03-29T03:04:47.570Z,100444.94
2023-03-29T03:07:17.253Z,100444.88
2023-03-29T03:09:47.800Z,100447.44
2023-03-29T03:12:17.601Z,100436.84
2023-03-29T03:14:50.016Z,100430.72
2023-03-29T03:17:20.889Z,100416.69
2023-03-29T03:19:50.759Z,100415.72
2023-03-29T03:22:20.434Z,100427.06
2023-03-29T03:24:50.110Z,100427.03
2023-03-29T03:27:20.263Z,100436.59
2023-03-29T03:29:52.600Z,100427.00
2023-03-29T03:32:43.754Z,100424.38
2023-03-29T03:35:51.924Z,100426.06
2023-03-29T03:38:21.912Z,100427.78
2023-03-29T03:40:58.294Z,100424.28
2023-03-29T03:43:28.846Z,100425.09
2023-03-29T03:46:02.253Z,100415.41
2023-03-29T03:48:33.467Z,100406.59
2023-03-29T03:51:29.495Z,100398.63
2023-03-29T03:53:59.332Z,100395.09
2023-03-29T03:56:34.727Z,100398.56
2023-03-29T03:59:07.522Z,100407.28
2023-03-29T04:01:48.189Z,100406.31
2023-03-29T04:04:23.409Z,100404.44
2023-03-29T04:07:22.608Z,100392.94
2023-03-29T04:10:26.145Z,100396.44
2023-03-29T04:13:05.184Z,100390.25
2023-03-29T04:15:39.343Z,100390.22
2023-03-29T04:18:15.225Z,100391.88
2023-03-29T04:20:49.273Z,100392.66
2023-03-29T04:23:22.197Z,100394.44
2023-03-29T04:25:52.496Z,100396.13
2023-03-29T04:28:40.646Z,100397.88
2023-03-29T04:31:33.526Z,100394.31
2023-03-29T04:34:25.370Z,100400.38
2023-03-29T04:36:58.903Z,100397.69
2023-03-29T04:39:32.184Z,100397.69
2023-03-29T04:42:03.090Z,100393.34
2023-03-29T04:44:35.255Z,100401.31
2023-03-29T04:47:08.122Z,100394.31
2023-03-29T04:49:54.088Z,100390.00
2023-03-29T04:52:37.889Z,100383.19
2023-03-29T04:55:10.170Z,100390.28
2023-03-29T04:58:03.150Z,100385.19
2023-03-29T05:00:40.069Z,100383.63
2023-03-29T05:03:22.199Z,100389.19
2023-03-29T05:06:10.437Z,100379.81
2023-03-29T05:08:42.500Z,100379.97
2023-03-29T05:11:29.399Z,100384.50
2023-03-29T05:14:02.566Z,100380.22
2023-03-29T05:16:35.827Z,100382.03
2023-03-29T05:19:06.336Z,100375.09
2023-03-29T05:21:43.706Z,100371.63
2023-03-29T05:24:17.282Z,100361.91
2023-03-29T05:26:47.788Z,100361.03
2023-03-29T05:29:17.500Z,100351.28
2023-03-29T05:31:52.697Z,100352.09
2023-03-29T05:34:22.864Z,100354.59
2023-03-29T05:37:01.648Z,100351.94
2023-03-29T05:39:37.860Z,100351.81
2023-03-29T05:42:11.045Z,100352.59
2023-03-29T05:44:56.414Z,100342.88
2023-03-29T05:47:29.315Z,100341.88
2023-03-29T05:49:59.624Z,100344.47
2023-03-29T05:52:32.401Z,100340.84
2023-03-29T05:55:02.142Z,100334.66
2023-03-29T05:57:31.911Z,100337.19
2023-03-29T06:00:02.169Z,100338.84
2023-03-29T06:02:42.515Z,100336.09
2023-03-29T06:05:14.020Z,100336.84
2023-03-29T06:08:00.945Z,100350.78
2023-03-29T06:10:50.357Z,100355.94
2023-03-29T06:13:37.385Z,100348.84
2023-03-29T06:16:08.700Z,100353.16
2023-03-29T06:18:40.392Z,100353.94
2023-03-29T06:21:10.850Z,100346.88
2023-03-29T06:23:43.943Z,100349.47
2023-03-29T06:26:13.803Z,100345.91
2023-03-29T06:28:43.504Z,100344.91
2023-03-29T06:31:14.043Z,100349.19
2023-03-29T06:33:43.850Z,100364.03
2023-03-29T06:36:24.793Z,100362.19
2023-03-29T06:38:57.429Z,100360.31
2023-03-29T06:41:50.186Z,100351.53
2023-03-29T06:44:57.317Z,100353.22
2023-03-29T06:47:31.008Z,100355.84
2023-03-29T06:50:01.218Z,100361.06
2023-03-29T06:52:47.326Z,100367.03
2023-03-29T06:55:20.812Z,100370.41
2023-03-29T06:57:51.112Z,100371.09
2023-03-29T07:00:28.260Z,100365.72
2023-03-29T07:03:23.683Z,100362.09
2023-03-29T07:06:01.403Z,100369.91
2023-03-29T07:08:31.916Z,100363.69
2023-03-29T07:11:10.404Z,100361.81
2023-03-29T07:14:09.836Z,100367.72
2023-03-29T07:16:39.743Z,100372.88
2023-03-29T07:19:19.888Z,100364.91
2023-03-29T07:21:58.813Z,100370.09
2023-03-29T07:24:40.670Z,100375.25
2023-03-29T07:27:13.081Z,100372.56
2023-03-29T07:29:43.343Z,100378.66
2023-03-29T07:32:13.280Z,100375.03
2023-03-29T07:34:46.495Z,100372.22
2023-03-29T07:37:30.705Z,100372.84
2023-03-29T07:40:09.126Z,100368.34
2023-03-29T07:42:48.964Z,100366.53
2023-03-29T07:45:26.048Z,100371.81
2023-03-29T07:48:03.541Z,100372.59
2023-03-29T07:50:49.011Z,100371.69
2023-03-29T07:53:21.871Z,100382.25
2023-03-29T07:55:54.825Z,100383.09
2023-03-29T07:58:53.136Z,100379.56
2023-03-29T08:01:22.985Z,100387.41
2023-03-29T08:04:11.528Z,100386.44
2023-03-29T08:07:10.248Z,100388.97
2023-03-29T08:09:57.533Z,100391.50
2023-03-29T08:12:41.278Z,100400.16
2023-03-29T08:15:14.225Z,100391.16
2023-03-29T08:17:44.836Z,100378.66
2023-03-29T08:20:17.869Z,100378.44
2023-03-29T08:22:49.929Z,100374.75
2023-03-29T08:25:31.275Z,100371.00
2023-03-29T08:28:01.969Z,100383.00
2023-03-29T08:30:43.094Z,100380.94
2023-03-29T08:33:12.990Z,100382.41
2023-03-29T08:35:43.565Z,100376.75
2023-03-29T08:38:21.850Z,100379.78
2023-03-29T08:40:52.705Z,100371.28
2023-03-29T08:43:55.766Z,100374.19
2023-03-29T08:46:43.904Z,100372.69
2023-03-29T08:49:28.580Z,100367.78
2023-03-29T08:52:00.628Z,100360.97
2023-03-29T08:54:32.979Z,100366.00
2023-03-29T08:57:15.691Z,100357.78
2023-03-29T08:59:48.814Z,100364.75
2023-03-29T09:02:26.449Z,100362.84
2023-03-29T09:05:05.263Z,100366.22
2023-03-29T09:07:44.534Z,100364.50
2023-03-29T09:10:18.571Z,100361.00
2023-03-29T09:13:02.106Z,100362.59
2023-03-29T09:15:36.240Z,100369.34
2023-03-29T09:18:32.317Z,100365.34
2023-03-29T09:21:04.255Z,100360.38
2023-03-29T09:23:58.266Z,100361.56
2023-03-29T09:26:44.821Z,100360.28
2023-03-29T09:29:55.241Z,100368.75
2023-03-29T09:32:34.697Z,100365.97
2023-03-29T09:35:18.832Z,100357.91
2023-03-29T09:37:51.459Z,100355.06
2023-03-29T09:40:24.883Z,100358.22
2023-03-29T09:43:05.204Z,100356.59
2023-03-29T09:45:35.702Z,100350.34
2023-03-29T09:48:09.226Z,100352.16
2023-03-29T09:50:44.072Z,100348.06
2023-03-29T09:53:14.442Z,100353.59
2023-03-29T09:55:49.812Z,100349.06
2023-03-29T09:58:32.953Z,100343.13
2023-03-29T10:01:04.904Z,100344.34
2023-03-29T10:03:36.465Z,100343.28
2023-03-29T10:06:16.003Z,100331.22
2023-03-29T10:08:57.612Z,100338.66
2023-03-29T10:11:32.996Z,100339.94
2023-03-29T10:14:04.547Z,100340.75
2023-03-29T10:16:38.190Z,100344.78
2023-03-29T10:19:20.245Z,100328.25
2023-03-29T10:21:54.026Z,100329.94
2023-03-29T10:24:24.877Z,100336.56
2023-03-29T10:26:57.462Z,100329.78
2023-03-29T10:29:27.962Z,100334.44
2023-03-29T10:31:58.240Z,100332.38
2023-03-29T10:34:28.473Z,100329.16
2023-03-29T10:37:02.456Z,100340.28
2023-03-29T10:39:36.757Z,100342.00
2023-03-29T10:42:08.571Z,100330.84
2023-03-29T10:44:39.352Z,100329.44
2023-03-29T10:47:16.926Z,100323.78
2023-03-29T10:49:48.210Z,100317.41
2023-03-29T10:52:21.494Z,100309.88
2023-03-29T10:54:52.503Z,100309.97
2023-03-29T10:57:28.111Z,100289.94
2023-03-29T11:00:01.169Z,100291.22
2023-03-29T11:02:47.993Z,100288.91
2023-03-29T11:05:25.707Z,100272.66
2023-03-29T11:08:27.239Z,100286.56
2023-03-29T11:11:05.207Z,100297.06
2023-03-29T11:13:41.294Z,100289.09
2023-03-29T11:16:20.367Z,100288.66
2023-03-29T11:19:23.174Z,100292.84
2023-03-29T11:21:59.220Z,100288.84
2023-03-29T11:24:41.140Z,100283.06
2023-03-29T11:27:17.232Z,100284.59
2023-03-29T11:29:54.065Z,100276.56
2023-03-29T11:32:31.657Z,100272.47
2023-03-29T11:35:09.401Z,100292.31
2023-03-29T11:37:45.198Z,100281.44
2023-03-29T11:40:36.163Z,100274.56
2023-03-29T11:43:07.906Z,100276.88
2023-03-29T11:45:40.662Z,100268.75
2023-03-29T11:48:16.669Z,100264.72
2023-03-29T11:50:51.384Z,100280.00
2023-03-29T11:53:25.683Z,100271.84
2023-03-29T11:55:58.553Z,100262.13
2023-03-29T11:58:31.800Z,100261.59
2023-03-29T12:01:04.489Z,100250.06
2023-03-29T12:03:40.317Z,100253.81
2023-03-29T12:06:16.003Z,100249.09
2023-03-29T12:08:49.506Z,100253.56
2023-03-29T12:11:27.480Z,100248.00
2023-03-29T12:14:00.245Z,100252.72
2023-03-29T12:16:35.075Z,100252.09
2023-03-29T12:19:08.075Z,100248.25
2023-03-29T12:21:38.577Z,100239.81
2023-03-29T12:24:09.413Z,100238.63
2023-03-29T12:26:52.935Z,100237.34
2023-03-29T12:29:45.171Z,100229.63
2023-03-29T12:32:50.967Z,100234.03
2023-03-29T12:36:06.159Z,100231.13
2023-03-29T12:38:59.161Z,100220.78
2023-03-29T12:41:53.498Z,100221.75
2023-03-29T12:44:44.890Z,100218.41
2023-03-29T12:47:26.457Z,100217.47
2023-03-29T12:49:59.037Z,100211.38
2023-03-29T12:52:30.714Z,100220.56
2023-03-29T12:55:02.997Z,100215.88
2023-03-29T12:57:45.791Z,100204.44
2023-03-29T13:00:30.432Z,100199.06
2023-03-29T13:03:05.242Z,100203.41
2023-03-29T13:05:38.281Z,100201.59
2023-03-29T13:08:24.397Z,100194.59
2023-03-29T13:10:56.581Z,100199.16
2023-03-29T13:13:31.340Z,100195.31
2023-03-29T13:16:13.509Z,100191.41
2023-03-29T13:19:07.955Z,100186.56
2023-03-29T13:21:40.433Z,100174.94
2023-03-29T13:24:24.533Z,100172.28
2023-03-29T13:27:01.469Z,100179.72
2023-03-29T13:29:55.057Z,100187.88
2023-03-29T13:32:42.769Z,100186.31
2023-03-29T13:35:21.167Z,100190.09
2023-03-29T13:37:58.742Z,100186.19
2023-03-29T13:40:50.130Z,100180.31
2023-03-29T13:43:25.529Z,100180.03
2023-03-29T13:46:24.100Z,100184.16
2023-03-29T13:48:58.191Z,100173.38
2023-03-29T13:51:37.116Z,100173.97
2023-03-29T13:54:16.082Z,100166.06
2023-03-29T13:56:56.656Z,100160.91
2023-03-29T13:59:31.466Z,100150.91
2023-03-29T14:02:04.875Z,100139.31
2023-03-29T14:04:37.997Z,100129.91
2023-03-29T14:07:08.324Z,100118.94
2023-03-29T14:09:44.281Z,100119.38
2023-03-29T14:12:16.675Z,100121.09
2023-03-29T14:14:58.745Z,100119.00
2023-03-29T14:17:31.854Z,100106.03
2023-03-29T14:20:08.249Z,100109.78
2023-03-29T14:22:38.089Z,100110.50
2023-03-29T14:25:14.848Z,100102.13
2023-03-29T14:27:44.929Z,100097.38
2023-03-29T14:30:24.298Z,100099.97
2023-03-29T14:32:57.568Z,100097.63
2023-03-29T14:35:34.425Z,100092.53
2023-03-29T14:38:04.572Z,100091.03
2023-03-29T14:40:35.204Z,100086.78
2023-03-29T14:43:11.240Z,100078.50
2023-03-29T14:45:41.131Z,100090.34
2023-03-29T14:48:15.520Z,100092.91
2023-03-29T14:50:45.820Z,100086.69
2023-03-29T14:53:21.143Z,100087.69
2023-03-29T14:55:54.516Z,100086.09
2023-03-29T14:58:25.947Z,100076.72
2023-03-29T15:00:55.895Z,100068.25
2023-03-29T15:03:29.479Z,100080.72
2023-03-29T15:06:02.669Z,100079.25
2023-03-29T15:08:35.333Z,100068.16
2023-03-29T15:11:06.852Z,100066.22
2023-03-29T15:13:36.603Z,100067.72
2023-03-29T15:16:08.269Z,100054.22
2023-03-29T15:18:41.821Z,100058.59
2023-03-29T15:21:13.294Z,100047.03
2023-03-29T15:23:49.570Z,100043.53
2023-03-29T15:26:26.427Z,100035.75
2023-03-29T15:29:00.718Z,100037.03
2023-03-29T15:31:37.113Z,100030.03
2023-03-29T15:34:11.266Z,100032.44
2023-03-29T15:36:43.305Z,100038.88
2023-03-29T15:39:15.528Z,100031.19
2023-03-29T15:41:45.910Z,100017.44
2023-03-29T15:44:18.539Z,100019.69
2023-03-29T15:46:48.390Z,100010.56
2023-03-29T15:49:20.798Z,100002.03
2023-03-29T15:51:50.496Z,100003.31
2023-03-29T15:54:20.187Z,100002.91
2023-03-29T15:56:53.622Z,99998.13
2023-03-29T15:59:23.396Z,99989.91
2023-03-29T16:01:54.672Z,99980.53
2023-03-29T16:04:27.143Z,99977.09
2023-03-29T16:06:57.921Z,99974.78
2023-03-29T16:09:28.211Z,99972.22
2023-03-29T16:12:00.465Z,99970.63
2023-03-29T16:14:31.872Z,99963.56
2023-03-29T16:17:03.280Z,99978.97
2023-03-29T16:19:36.562Z,99977.59
2023-03-29T16:22:07.649Z,99955.81
2023-03-29T16:24:38.107Z,99956.03
2023-03-29T16:27:08.107Z,99952.63
2023-03-29T16:29:37.857Z,99945.47
2023-03-29T16:32:07.859Z,99953.56
2023-03-29T16:34:43.436Z,99941.31
2023-03-29T16:37:13.616Z,99944.09
2023-03-29T16:39:43.603Z,99941.53
2023-03-29T16:42:14.257Z,99931.94
2023-03-29T16:44:44.673Z,99919.53
2023-03-29T16:47:14.919Z,99917.84
2023-03-29T16:49:48.720Z,99913.38
2023-03-29T16:52:18.395Z,99916.97
2023-03-29T16:54:48.159Z,99925.09
2023-03-29T16:57:17.894Z,99928.72
2023-03-29T16:59:47.902Z,99927.13
2023-03-29T17:02:17.587Z,99925.75
2023-03-29T17:04:49.999Z,99918.94
2023-03-29T17:07:20.052Z,99921.06
2023-03-29T17:09:49.740Z,99931.94
2023-03-29T17:12:21.254Z,99927.69
2023-03-29T17:14:51.264Z,99921.72
2023-03-29T17:17:21.857Z,99914.91
2023-03-29T17:19:54.104Z,99904.44
2023-03-29T17:22:23.766Z,99904.66
2023-03-29T17:24:53.420Z,99906.59
2023-03-29T17:27:23.210Z,99906.78
2023-03-29T17:29:52.907Z,99912.13
2023-03-29T17:32:22.594Z,99913.19
2023-03-29T17:34:54.895Z,99910.63
2023-03-29T17:37:24.636Z,99913.50
2023-03-29T17:39:54.407Z,99922.47
2023-03-29T17:42:24.141Z,99913.72
2023-03-29T17:44:53.872Z,99904.00
2023-03-29T17:47:23.560Z,99896.97
2023-03-29T17:49:56.021Z,99892.69
2023-03-29T17:52:26.353Z,99902.75
2023-03-29T17:54:56.179Z,99888.84
2023-03-29T17:57:26.649Z,99897.34
2023-03-29T17:59:56.644Z,99895.22
2023-03-29T18:02:27.277Z,99890.41
2023-03-29T18:05:01.747Z,99889.25
2023-03-29T18:07:31.626Z,99885.38
2023-03-29T18:10:01.508Z,99884.94
2023-03-29T18:12:31.960Z,99888.84
2023-03-29T18:15:01.738Z,99885.75
2023-03-29T18:17:31.605Z,99889.56
2023-03-29T18:20:09.203Z,99891.72
2023-03-29T18:22:39.300Z,99893.81
2023-03-29T18:25:11.308Z,99881.66
2023-03-29T18:27:41.486Z,99885.66
2023-03-29T18:30:13.956Z,99887.78
2023-03-29T18:32:43.756Z,99887.22
2023-03-29T18:35:16.137Z,99883.06
2023-03-29T18:37:45.831Z,99880.72
2023-03-29T18:40:19.965Z,99874.50
2023-03-29T18:42:49.623Z,99884.47
2023-03-29T18:45:19.456Z,99885.56
2023-03-29T18:47:50.651Z,99883.06
2023-03-29T18:50:23.292Z,99890.31
2023-03-29T18:52:53.142Z,99884.22
2023-03-29T18:55:22.812Z,99883.50
2023-03-29T18:57:52.562Z,99879.13
2023-03-29T19:00:22.464Z,99879.22
2023-03-29T19:02:52.262Z,99873.97
2023-03-29T19:05:24.631Z,99873.19
2023-03-29T19:07:54.335Z,99877.66
2023-03-29T19:10:24.826Z,99873.41
2023-03-29T19:12:54.614Z,99860.19
2023-03-29T19:15:24.443Z,99856.88
2023-03-29T19:17:54.363Z,99851.75
2023-03-29T19:20:26.789Z,99856.22
2023-03-29T19:22:56.636Z,99854.53
2023-03-29T19:25:26.332Z,99852.81
2023-03-29T19:27:56.064Z,99849.47
2023-03-29T19:30:26.012Z,99849.56
2023-03-29T19:32:55.780Z,99842.66
2023-03-29T19:35:28.246Z,99847.22
2023-03-29T19:37:57.987Z,99831.47
2023-03-29T19:40:27.759Z,99844.00
2023-03-29T19:42:57.468Z,99831.75
2023-03-29T19:45:27.961Z,99827.41
2023-03-29T19:47:57.825Z,99831.00
2023-03-29T19:50:31.706Z,99823.97
2023-03-29T19:53:01.784Z,99816.09
2023-03-29T19:55:31.566Z,99817.03
2023-03-29T19:58:01.244Z,99816.28
2023-03-29T20:00:30.937Z,99816.47
2023-03-29T20:03:02.053Z,99813.28
2023-03-29T20:05:34.369Z,99809.09
2023-03-29T20:08:04.093Z,99799.50
2023-03-29T20:10:33.782Z,99792.78
2023-03-29T20:13:03.516Z,99796.59
2023-03-29T20:15:33.219Z,99791.53
2023-03-29T20:18:03.621Z,99786.41
2023-03-29T20:20:35.946Z,99784.81
2023-03-29T20:23:05.773Z,99782.34
2023-03-29T20:25:35.770Z,99784.34
2023-03-29T20:28:06.661Z,99783.59
2023-03-29T20:30:36.902Z,99779.31
2023-03-29T20:33:07.586Z,99767.16
2023-03-29T20:35:39.944Z,99767.28
2023-03-29T20:38:10.374Z,99778.06
2023-03-29T20:40:40.961Z,99782.72
2023-03-29T20:43:13.433Z,99780.25
2023-03-29T20:45:52.701Z,99776.94
2023-03-29T20:48:24.414Z,99771.81
2023-03-29T20:50:57.788Z,99764.91
2023-03-29T20:53:34.835Z,99766.88
2023-03-29T20:56:06.534Z,99772.38
2023-03-29T20:58:36.215Z,99767.22
2023-03-29T21:01:06.169Z,99748.75
2023-03-29T21:03:36.338Z,99751.28
2023-03-29T21:06:09.618Z,99744.22
2023-03-29T21:08:39.315Z,99740.69
2023-03-29T21:11:10.054Z,99725.63
2023-03-29T21:13:39.955Z,99727.16
2023-03-29T21:16:10.889Z,99728.84
2023-03-29T21:18:41.730Z,99727.16
2023-03-29T21:21:14.885Z,99730.84
2023-03-29T21:23:44.567Z,99725.63
2023-03-29T21:26:14.248Z,99714.13
2023-03-29T21:28:43.959Z,99710.63
2023-03-29T21:31:13.679Z,99712.25
2023-03-29T21:33:43.396Z,99692.63
2023-03-29T21:36:15.686Z,99695.28
2023-03-29T21:38:45.578Z,99689.03
2023-03-29T21:41:15.569Z,99685.34
2023-03-29T21:43:45.281Z,99684.28
2023-03-29T21:46:15.693Z,99684.09
2023-03-29T21:48:45.468Z,99686.66
2023-03-29T21:51:17.753Z,99679.44
2023-03-29T21:53:47.418Z,99675.00
2023-03-29T21:56:17.676Z,99669.69
2023-03-29T21:58:47.393Z,99666.16
2023-03-29T22:01:17.135Z,99655.63
2023-03-29T22:03:47.641Z,99676.88
2023-03-29T22:06:19.910Z,99686.75
2023-03-29T22:08:53.130Z,99679.16
2023-03-29T22:11:23.310Z,99684.88
2023-03-29T22:13:54.737Z,99683.34
2023-03-29T22:16:26.033Z,99683.50
2023-03-29T22:18:55.856Z,99687.31
2023-03-29T22:21:31.314Z,99691.09
2023-03-29T22:24:02.340Z,99686.75
2023-03-29T22:26:34.232Z,99675.16
2023-03-29T22:29:04.293Z,99670.75
2023-03-29T22:31:34.539Z,99678.59
2023-03-29T22:34:04.259Z,99675.06
2023-03-29T22:36:36.967Z,99668.94
2023-03-29T22:39:07.260Z,99662.94
2023-03-29T22:41:36.914Z,99660.22
2023-03-29T22:44:06.724Z,99652.16
2023-03-29T22:46:36.746Z,99648.47
2023-03-29T22:49:07.283Z,99656.50
2023-03-29T22:51:39.530Z,99648.63
2023-03-29T22:54:09.288Z,99655.84
2023-03-29T22:56:39.120Z,99650.53
2023-03-29T22:59:08.859Z,99644.38
2023-03-29T23:01:38.584Z,99642.69
2023-03-29T23:04:08.590Z,99642.75
2023-03-29T23:06:41.033Z,99633.16
2023-03-29T23:09:10.760Z,99638.38
2023-03-29T23:11:40.469Z,99634.94
2023-03-29T23:14:10.168Z,99641.22
2023-03-29T23:16:40.251Z,99639.78
2023-03-29T23:19:09.928Z,99635.81
2023-03-29T23:21:42.285Z,99642.44
2023-03-29T23:24:12.012Z,99633.91
2023-03-29T23:26:41.668Z,99635.13
2023-03-29T23:29:11.353Z,99629.81
2023-03-29T23:31:41.922Z,99629.06
2023-03-29T23:34:13.580Z,99628.78
2023-03-29T23:36:45.819Z,99626.88
2023-03-29T23:39:16.212Z,99624.22
2023-03-29T23:41:45.907Z,99625.19
2023-03-29T23:44:15.581Z,99630.66
2023-03-29T23:46:45.380Z,99623.59
2023-03-29T23:49:15.127Z,99622.56
2023-03-29T23:51:48.420Z,99622.25
2023-03-29T23:54:18.117Z,99620.28
2023-03-29T23:56:47.820Z,99614.78
2023-03-29T23:59:17.511Z,99599.59
